Aérodrome :
LOGIN :

S'inscrire | Disclaimer

   EN    FR    IT 

 










Légende :    VFR   VFR Marginal   IFR   IFR Intensif   IFR Très Intensif
Visi : 
Plafond : 
>= 8 km
>= 3000ft
5 à 8 km
1000 à 3000 ft
1500m à 5 km
500 à 1000 ft
800 à 1500m
200 à 500 ft
< 800m
< 200 ft
Symboles :   Orages  Brouillard  Fortes neiges  Fortes précipitations  Vent > 20 kt
SIGMETs :   Divers  Orages  Givrage  Turbulence  Onde Orograph.  Cendres Volcan.






- Altitude de l'aérodrome : 355 ft
- Code IATA : VBS


LIPO - Montichiari - Brescia

DERNIER METAR :
  • 251850Z AUTO 23005KT 9999 BKN140/// 25/15 Q1015

METARs EXPIRÉS :
  • 251820Z AUTO 22006KT 9999 BKN140/// 25/15 Q1014
  • 251750Z AUTO 24006KT 9999 SCT100/// 26/14 Q1014
  • 251720Z AUTO 24006KT 9999 FEW100/// SCT120/// 26/14 Q1013
  • 251650Z AUTO 25008KT 9999 BKN100/// 26/13 Q1013
  • 251620Z AUTO 25009KT 220V280 9999 FEW120/// 27/13 Q1013

TAF AMD TAF LIPO
Valide du 25 à 18h jusqu'au 26 à 18h UTC


251728Z 2518/2618 VRB06KT 9999 FEW030 SCT050
BECMG 2606/2608 11010KT
BECMG 2616/2618 VRB05KT



MET'MAP, la Météo Aéronautique d'un coup d'oeil ! - Copyright ORBIFLY Décembre 2007 - Disclaimer

ORBIFLY MET'MAP TEAM :

Programmation & Développement : Alexandra Zaïnal
Sur une idée originale de : Baudouin d'Aumeries
Soutien technique & logistique : Manuel Goepfert
Assistance : Marc-Olivier Méhu

Contact : metmap@orbifly.com




SOURCES & CREDITS :

   NOAA